sensor_id;sensor_type;location;lat;lon;timestamp;pressure;altitude;pressure_sealevel;temperature;humidity
18533;BME280;9396;51.510;11.934;2023-12-20T00:00:15;100138.47;;;5.35;100.00
18533;BME280;9396;51.510;11.934;2023-12-20T00:02:41;100134.22;;;5.23;100.00
18533;BME280;9396;51.510;11.934;2023-12-20T00:05:12;100124.44;;;5.34;100.00
18533;BME280;9396;51.510;11.934;2023-12-20T00:07:39;100136.31;;;5.29;100.00
18533;BME280;9396;51.510;11.934;2023-12-20T00:10:06;100128.81;;;5.24;100.00
18533;BME280;9396;51.510;11.934;2023-12-20T00:12:32;100131.81;;;5.20;100.00
18533;BME280;9396;51.510;11.934;2023-12-20T00:15:00;100121.66;;;5.15;100.00
18533;BME280;9396;51.510;11.934;2023-12-20T00:17:27;100122.97;;;5.21;100.00
18533;BME280;9396;51.510;11.934;2023-12-20T00:19:54;100122.50;;;5.16;100.00
18533;BME280;9396;51.510;11.934;2023-12-20T00:22:20;100121.66;;;5.15;100.00
18533;BME280;9396;51.510;11.934;2023-12-20T00:24:47;100116.72;;;5.22;100.00
18533;BME280;9396;51.510;11.934;2023-12-20T00:27:13;100117.09;;;5.17;100.00
18533;BME280;9396;51.510;11.934;2023-12-20T00:29:40;100110.97;;;5.17;100.00
18533;BME280;9396;51.510;11.934;2023-12-20T00:32:09;100114.34;;;5.19;100.00
18533;BME280;9396;51.510;11.934;2023-12-20T00:34:36;100118.84;;;5.28;100.00
18533;BME280;9396;51.510;11.934;2023-12-20T00:37:03;100111.44;;;5.22;100.00
18533;BME280;9396;51.510;11.934;2023-12-20T00:39:29;100103.75;;;5.30;100.00
18533;BME280;9396;51.510;11.934;2023-12-20T00:41:56;100107.53;;;5.37;100.00
18533;BME280;9396;51.510;11.934;2023-12-20T00:44:22;100105.25;;;5.32;100.00
18533;BME280;9396;51.510;11.934;2023-12-20T00:46:49;100106.16;;;5.22;100.00
18533;BME280;9396;51.510;11.934;2023-12-20T00:49:18;100106.81;;;5.35;100.00
18533;BME280;9396;51.510;11.934;2023-12-20T00:51:44;100116.59;;;5.44;100.00
18533;BME280;9396;51.510;11.934;2023-12-20T00:54:12;100121.22;;;5.31;100.00
18533;BME280;9396;51.510;11.934;2023-12-20T00:56:38;100118.13;;;5.26;100.00
18533;BME280;9396;51.510;11.934;2023-12-20T00:59:05;100119.63;;;5.39;100.00
18533;BME280;9396;51.510;11.934;2023-12-20T01:01:32;100109.63;;;5.43;100.00
18533;BME280;9396;51.510;11.934;2023-12-20T01:03:58;100113.19;;;5.53;100.00
18533;BME280;9396;51.510;11.934;2023-12-20T01:06:26;100109.28;;;5.47;100.00
18533;BME280;9396;51.510;11.934;2023-12-20T01:08:53;100104.00;;;5.47;100.00
18533;BME280;9396;51.510;11.934;2023-12-20T01:11:20;100106.94;;;5.54;100.00
18533;BME280;9396;51.510;11.934;2023-12-20T01:13:47;100100.22;;;5.40;100.00
18533;BME280;9396;51.510;11.934;2023-12-20T01:16:13;100097.84;;;5.37;100.00
18533;BME280;9396;51.510;11.934;2023-12-20T01:18:40;100090.03;;;5.36;100.00
18533;BME280;9396;51.510;11.934;2023-12-20T01:21:07;100093.56;;;5.25;100.00
18533;BME280;9396;51.510;11.934;2023-12-20T01:23:35;100096.41;;;5.33;100.00
18533;BME280;9396;51.510;11.934;2023-12-20T01:26:02;100093.38;;;5.38;100.00
18533;BME280;9396;51.510;11.934;2023-12-20T01:28:30;100100.25;;;5.50;100.00
18533;BME280;9396;51.510;11.934;2023-12-20T01:30:57;100087.06;;;5.50;100.00
18533;BME280;9396;51.510;11.934;2023-12-20T01:33:24;100076.84;;;5.57;100.00
18533;BME280;9396;51.510;11.934;2023-12-20T01:35:50;100075.50;;;5.62;100.00
18533;BME280;9396;51.510;11.934;2023-12-20T01:38:17;100080.34;;;5.57;100.00
18533;BME280;9396;51.510;11.934;2023-12-20T01:40:46;100081.22;;;5.67;100.00
18533;BME280;9396;51.510;11.934;2023-12-20T01:43:13;100074.16;;;5.77;100.00
18533;BME280;9396;51.510;11.934;2023-12-20T01:45:40;100074.25;;;5.87;100.00
18533;BME280;9396;51.510;11.934;2023-12-20T01:48:08;100063.16;;;5.93;100.00
18533;BME280;9396;51.510;11.934;2023-12-20T01:50:36;100080.97;;;6.00;100.00
18533;BME280;9396;51.510;11.934;2023-12-20T01:53:03;100061.19;;;5.85;100.00
18533;BME280;9396;51.510;11.934;2023-12-20T01:55:33;100067.81;;;5.80;100.00
18533;BME280;9396;51.510;11.934;2023-12-20T01:58:02;100071.28;;;5.80;100.00
18533;BME280;9396;51.510;11.934;2023-12-20T02:00:30;100071.97;;;5.82;100.00
18533;BME280;9396;51.510;11.934;2023-12-20T02:03:00;100069.88;;;5.76;100.00
18533;BME280;9396;51.510;11.934;2023-12-20T02:05:27;100061.53;;;5.71;100.00
18533;BME280;9396;51.510;11.934;2023-12-20T02:07:54;100055.16;;;5.53;100.00
18533;BME280;9396;51.510;11.934;2023-12-20T02:10:21;100050.25;;;5.69;100.00
18533;BME280;9396;51.510;11.934;2023-12-20T02:12:48;100046.63;;;5.70;100.00
18533;BME280;9396;51.510;11.934;2023-12-20T02:15:16;100043.56;;;5.65;100.00
18533;BME280;9396;51.510;11.934;2023-12-20T02:17:43;100050.97;;;5.71;100.00
18533;BME280;9396;51.510;11.934;2023-12-20T02:20:10;100041.72;;;5.56;100.00
18533;BME280;9396;51.510;11.934;2023-12-20T02:22:38;100047.69;;;5.58;100.00
18533;BME280;9396;51.510;11.934;2023-12-20T02:25:06;100046.78;;;5.69;100.00
18533;BME280;9396;51.510;11.934;2023-12-20T02:27:33;100038.56;;;5.62;100.00
18533;BME280;9396;51.510;11.934;2023-12-20T02:30:00;100044.19;;;5.48;100.00
18533;BME280;9396;51.510;11.934;2023-12-20T02:32:28;100039.00;;;5.46;100.00
18533;BME280;9396;51.510;11.934;2023-12-20T02:34:55;100035.34;;;5.38;100.00
18533;BME280;9396;51.510;11.934;2023-12-20T02:37:22;100038.00;;;5.38;100.00
18533;BME280;9396;51.510;11.934;2023-12-20T02:39:50;100034.41;;;5.39;100.00
18533;BME280;9396;51.510;11.934;2023-12-20T02:42:17;100030.34;;;5.35;100.00
18533;BME280;9396;51.510;11.934;2023-12-20T02:44:43;100036.72;;;5.32;100.00
18533;BME280;9396;51.510;11.934;2023-12-20T02:47:10;100029.50;;;5.34;100.00
18533;BME280;9396;51.510;11.934;2023-12-20T02:49:37;100032.84;;;5.36;100.00
18533;BME280;9396;51.510;11.934;2023-12-20T02:52:04;100020.50;;;5.37;100.00
18533;BME280;9396;51.510;11.934;2023-12-20T02:54:31;100030.78;;;5.40;100.00
18533;BME280;9396;51.510;11.934;2023-12-20T02:56:59;100026.22;;;5.42;100.00
18533;BME280;9396;51.510;11.934;2023-12-20T02:59:25;100022.16;;;5.38;100.00
18533;BME280;9396;51.510;11.934;2023-12-20T03:01:52;100037.69;;;5.31;100.00
18533;BME280;9396;51.510;11.934;2023-12-20T03:04:18;100032.47;;;5.41;100.00
18533;BME280;9396;51.510;11.934;2023-12-20T03:06:45;100031.19;;;5.35;100.00
18533;BME280;9396;51.510;11.934;2023-12-20T03:09:12;100027.72;;;5.35;100.00
18533;BME280;9396;51.510;11.934;2023-12-20T03:11:39;100030.09;;;5.38;100.00
18533;BME280;9396;51.510;11.934;2023-12-20T03:14:07;100034.41;;;5.39;100.00
18533;BME280;9396;51.510;11.934;2023-12-20T03:16:33;100035.50;;;5.36;100.00
18533;BME280;9396;51.510;11.934;2023-12-20T03:19:00;100030.41;;;5.44;100.00
18533;BME280;9396;51.510;11.934;2023-12-20T03:21:26;100031.09;;;5.46;100.00
18533;BME280;9396;51.510;11.934;2023-12-20T03:23:53;100027.78;;;5.44;100.00
18533;BME280;9396;51.510;11.934;2023-12-20T03:26:19;100016.59;;;5.31;100.00
18533;BME280;9396;51.510;11.934;2023-12-20T03:28:47;100014.47;;;5.25;100.00
18533;BME280;9396;51.510;11.934;2023-12-20T03:31:15;100024.00;;;5.37;100.00
18533;BME280;9396;51.510;11.934;2023-12-20T03:33:42;100034.59;;;5.26;100.00
18533;BME280;9396;51.510;11.934;2023-12-20T03:36:08;100036.41;;;5.26;100.00
18533;BME280;9396;51.510;11.934;2023-12-20T03:38:35;100043.34;;;5.27;100.00
18533;BME280;9396;51.510;11.934;2023-12-20T03:41:02;100040.00;;;5.25;100.00
18533;BME280;9396;51.510;11.934;2023-12-20T03:43:28;100047.09;;;5.24;100.00
18533;BME280;9396;51.510;11.934;2023-12-20T03:45:55;100032.28;;;5.33;100.00
18533;BME280;9396;51.510;11.934;2023-12-20T03:48:23;100026.16;;;5.32;100.00
18533;BME280;9396;51.510;11.934;2023-12-20T03:50:49;100037.81;;;5.30;100.00
18533;BME280;9396;51.510;11.934;2023-12-20T03:53:16;100045.59;;;5.31;100.00
18533;BME280;9396;51.510;11.934;2023-12-20T03:55:43;100042.81;;;5.33;100.00
18533;BME280;9396;51.510;11.934;2023-12-20T03:58:09;100036.53;;;5.24;100.00
18533;BME280;9396;51.510;11.934;2023-12-20T04:00:36;100037.38;;;5.25;100.00
18533;BME280;9396;51.510;11.934;2023-12-20T04:03:03;100036.41;;;5.26;100.00
18533;BME280;9396;51.510;11.934;2023-12-20T04:05:31;100032.09;;;5.25;100.00
18533;BME280;9396;51.510;11.934;2023-12-20T04:07:59;100026.84;;;5.25;100.00
18533;BME280;9396;51.510;11.934;2023-12-20T04:10:26;100031.41;;;5.23;100.00
18533;BME280;9396;51.510;11.934;2023-12-20T04:12:53;100021.09;;;5.20;100.00
18533;BME280;9396;51.510;11.934;2023-12-20T04:15:20;100038.72;;;5.19;100.00
18533;BME280;9396;51.510;11.934;2023-12-20T04:17:46;100046.63;;;5.19;100.00
18533;BME280;9396;51.510;11.934;2023-12-20T04:20:13;100042.66;;;5.25;100.00
18533;BME280;9396;51.510;11.934;2023-12-20T04:22:41;100043.91;;;5.30;100.00
18533;BME280;9396;51.510;11.934;2023-12-20T04:25:08;100057.44;;;5.37;100.00
18533;BME280;9396;51.510;11.934;2023-12-20T04:27:35;100050.94;;;5.41;100.00
18533;BME280;9396;51.510;11.934;2023-12-20T04:30:00;100070.66;;;5.46;100.00
18533;BME280;9396;51.510;11.934;2023-12-20T04:32:27;100065.34;;;5.37;100.00
18533;BME280;9396;51.510;11.934;2023-12-20T04:34:54;100063.56;;;5.37;100.00
18533;BME280;9396;51.510;11.934;2023-12-20T04:37:20;100059.75;;;5.51;100.00
18533;BME280;9396;51.510;11.934;2023-12-20T04:39:48;100077.75;;;5.46;100.00
18533;BME280;9396;51.510;11.934;2023-12-20T04:42:15;100056.44;;;5.59;100.00
18533;BME280;9396;51.510;11.934;2023-12-20T04:44:42;100068.72;;;5.48;100.00
18533;BME280;9396;51.510;11.934;2023-12-20T04:47:09;100072.84;;;5.41;100.00
18533;BME280;9396;51.510;11.934;2023-12-20T04:49:35;100076.34;;;5.42;100.00
18533;BME280;9396;51.510;11.934;2023-12-20T04:52:02;100079.25;;;5.39;100.00
18533;BME280;9396;51.510;11.934;2023-12-20T04:54:29;100072.72;;;5.43;100.00
18533;BME280;9396;51.510;11.934;2023-12-20T04:56:57;100073.03;;;5.29;100.00
18533;BME280;9396;51.510;11.934;2023-12-20T04:59:23;100069.59;;;5.28;100.00
18533;BME280;9396;51.510;11.934;2023-12-20T05:01:50;100068.16;;;5.24;100.00
18533;BME280;9396;51.510;11.934;2023-12-20T05:04:17;100072.47;;;5.25;100.00
18533;BME280;9396;51.510;11.934;2023-12-20T05:06:43;100067.63;;;5.30;100.00
18533;BME280;9396;51.510;11.934;2023-12-20T05:09:10;100065.41;;;5.26;100.00
18533;BME280;9396;51.510;11.934;2023-12-20T05:11:37;100066.03;;;5.18;100.00
18533;BME280;9396;51.510;11.934;2023-12-20T05:14:05;100073.19;;;5.07;100.00
18533;BME280;9396;51.510;11.934;2023-12-20T05:16:32;100075.09;;;5.05;100.00
18533;BME280;9396;51.510;11.934;2023-12-20T05:18:59;100066.16;;;5.17;100.00
18533;BME280;9396;51.510;11.934;2023-12-20T05:21:27;100064.97;;;5.21;100.00
18533;BME280;9396;51.510;11.934;2023-12-20T05:23:53;100066.13;;;5.28;100.00
18533;BME280;9396;51.510;11.934;2023-12-20T05:26:20;100078.09;;;5.32;100.00
18533;BME280;9396;51.510;11.934;2023-12-20T05:28:47;100087.06;;;5.29;100.00
18533;BME280;9396;51.510;11.934;2023-12-20T05:31:15;100084.88;;;5.14;100.00
18533;BME280;9396;51.510;11.934;2023-12-20T05:33:41;100072.66;;;5.13;100.00
18533;BME280;9396;51.510;11.934;2023-12-20T05:36:08;100080.91;;;5.19;100.00
18533;BME280;9396;51.510;11.934;2023-12-20T05:38:36;100079.84;;;5.11;100.00
18533;BME280;9396;51.510;11.934;2023-12-20T05:41:03;100093.41;;;5.06;100.00
18533;BME280;9396;51.510;11.934;2023-12-20T05:43:30;100097.63;;;5.09;100.00
18533;BME280;9396;51.510;11.934;2023-12-20T05:45:56;100093.81;;;5.02;100.00
18533;BME280;9396;51.510;11.934;2023-12-20T05:48:24;100086.22;;;5.08;100.00
18533;BME280;9396;51.510;11.934;2023-12-20T05:50:51;100088.03;;;5.08;100.00
18533;BME280;9396;51.510;11.934;2023-12-20T05:53:18;100091.03;;;5.03;100.00
18533;BME280;9396;51.510;11.934;2023-12-20T05:55:44;100092.84;;;5.03;100.00
18533;BME280;9396;51.510;11.934;2023-12-20T05:58:11;100093.09;;;5.00;100.00
18533;BME280;9396;51.510;11.934;2023-12-20T06:00:38;100085.66;;;5.05;100.00
18533;BME280;9396;51.510;11.934;2023-12-20T06:03:04;100085.66;;;5.05;100.00
18533;BME280;9396;51.510;11.934;2023-12-20T06:05:32;100072.47;;;5.05;100.00
18533;BME280;9396;51.510;11.934;2023-12-20T06:07:59;100084.75;;;5.15;100.00
18533;BME280;9396;51.510;11.934;2023-12-20T06:10:28;100086.31;;;5.18;100.00
18533;BME280;9396;51.510;11.934;2023-12-20T06:12:55;100089.81;;;5.07;100.00
18533;BME280;9396;51.510;11.934;2023-12-20T06:15:22;100108.63;;;4.82;100.00
18533;BME280;9396;51.510;11.934;2023-12-20T06:17:49;100105.44;;;4.99;100.00
18533;BME280;9396;51.510;11.934;2023-12-20T06:20:16;100101.88;;;4.89;100.00
18533;BME280;9396;51.510;11.934;2023-12-20T06:22:43;100102.25;;;4.85;100.00
18533;BME280;9396;51.510;11.934;2023-12-20T06:25:10;100107.16;;;4.89;100.00
18533;BME280;9396;51.510;11.934;2023-12-20T06:27:37;100109.78;;;4.89;100.00
18533;BME280;9396;51.510;11.934;2023-12-20T06:30:04;100097.44;;;4.90;100.00
18533;BME280;9396;51.510;11.934;2023-12-20T06:32:31;100094.19;;;4.97;100.00
18533;BME280;9396;51.510;11.934;2023-12-20T06:34:57;100092.34;;;5.09;100.00
18533;BME280;9396;51.510;11.934;2023-12-20T06:37:24;100078.69;;;5.04;100.00
18533;BME280;9396;51.510;11.934;2023-12-20T06:39:52;100078.94;;;5.01;100.00
18533;BME280;9396;51.510;11.934;2023-12-20T06:42:18;100071.13;;;5.10;100.00
18533;BME280;9396;51.510;11.934;2023-12-20T06:44:45;100071.72;;;5.14;100.00
18533;BME280;9396;51.510;11.934;2023-12-20T06:47:12;100063.09;;;5.12;100.00
18533;BME280;9396;51.510;11.934;2023-12-20T06:49:39;100065.72;;;5.12;100.00
18533;BME280;9396;51.510;11.934;2023-12-20T06:52:06;100082.97;;;5.16;100.00
18533;BME280;9396;51.510;11.934;2023-12-20T06:54:32;100085.66;;;5.05;100.00
18533;BME280;9396;51.510;11.934;2023-12-20T06:57:01;100080.50;;;5.03;100.00
18533;BME280;9396;51.510;11.934;2023-12-20T06:59:28;100088.03;;;5.08;100.00
18533;BME280;9396;51.510;11.934;2023-12-20T07:01:55;100093.31;;;4.97;100.00
18533;BME280;9396;51.510;11.934;2023-12-20T07:04:21;100078.03;;;4.91;100.00
18533;BME280;9396;51.510;11.934;2023-12-20T07:06:48;100087.25;;;4.96;100.00
18533;BME280;9396;51.510;11.934;2023-12-20T07:09:16;100093.00;;;4.90;100.00
18533;BME280;9396;51.510;11.934;2023-12-20T07:11:43;100097.44;;;4.90;100.00
18533;BME280;9396;51.510;11.934;2023-12-20T07:14:11;100089.41;;;4.91;100.00
18533;BME280;9396;51.510;11.934;2023-12-20T07:16:37;100089.75;;;4.98;100.00
18533;BME280;9396;51.510;11.934;2023-12-20T07:19:04;100100.56;;;4.95;100.00
18533;BME280;9396;51.510;11.934;2023-12-20T07:21:30;100089.75;;;4.98;100.00
18533;BME280;9396;51.510;11.934;2023-12-20T07:23:57;100093.09;;;5.00;100.00
18533;BME280;9396;51.510;11.934;2023-12-20T07:26:24;100095.03;;;4.98;100.00
18533;BME280;9396;51.510;11.934;2023-12-20T07:28:50;100095.16;;;4.96;100.00
18533;BME280;9396;51.510;11.934;2023-12-20T07:31:18;100105.44;;;4.99;100.00
18533;BME280;9396;51.510;11.934;2023-12-20T07:33:45;100098.38;;;5.00;100.00
18533;BME280;9396;51.510;11.934;2023-12-20T07:36:12;100103.56;;;5.11;100.00
18533;BME280;9396;51.510;11.934;2023-12-20T07:38:39;100089.06;;;5.16;100.00
18533;BME280;9396;51.510;11.934;2023-12-20T07:41:09;100099.22;;;5.21;100.00
18533;BME280;9396;51.510;11.934;2023-12-20T07:43:36;100094.31;;;5.16;100.00
18533;BME280;9396;51.510;11.934;2023-12-20T07:46:05;100088.81;;;5.19;100.00
18533;BME280;9396;51.510;11.934;2023-12-20T07:48:34;100089.25;;;5.24;100.00
18533;BME280;9396;51.510;11.934;2023-12-20T07:51:01;100088.69;;;5.21;100.00
18533;BME280;9396;51.510;11.934;2023-12-20T07:53:28;100083.84;;;5.26;100.00
18533;BME280;9396;51.510;11.934;2023-12-20T07:55:55;100090.78;;;5.27;100.00
18533;BME280;9396;51.510;11.934;2023-12-20T07:58:22;100095.44;;;5.34;100.00
18533;BME280;9396;51.510;11.934;2023-12-20T08:00:48;100088.09;;;5.38;100.00
18533;BME280;9396;51.510;11.934;2023-12-20T08:03:15;100100.13;;;5.31;100.00
18533;BME280;9396;51.510;11.934;2023-12-20T08:05:43;100093.91;;;5.32;100.00
18533;BME280;9396;51.510;11.934;2023-12-20T08:08:09;100101.72;;;5.22;100.00
18533;BME280;9396;51.510;11.934;2023-12-20T08:10:36;100101.88;;;5.21;100.00
18533;BME280;9396;51.510;11.934;2023-12-20T08:13:03;100094.81;;;5.21;100.00
18533;BME280;9396;51.510;11.934;2023-12-20T08:15:29;100099.69;;;5.26;100.00
18533;BME280;9396;51.510;11.934;2023-12-20T08:17:56;100102.44;;;5.24;100.00
18533;BME280;9396;51.510;11.934;2023-12-20T08:20:23;100102.13;;;5.18;100.00
18533;BME280;9396;51.510;11.934;2023-12-20T08:22:51;100091.81;;;5.15;100.00
18533;BME280;9396;51.510;11.934;2023-12-20T08:25:17;100101.41;;;5.16;100.00
18533;BME280;9396;51.510;11.934;2023-12-20T08:27:44;100106.81;;;5.14;100.00
18533;BME280;9396;51.510;11.934;2023-12-20T08:30:11;100107.91;;;5.12;100.00
18533;BME280;9396;51.510;11.934;2023-12-20T08:32:37;100105.03;;;5.04;100.00
18533;BME280;9396;51.510;11.934;2023-12-20T08:35:05;100111.47;;;5.11;100.00
18533;BME280;9396;51.510;11.934;2023-12-20T08:37:31;100105.22;;;5.23;100.00
18533;BME280;9396;51.510;11.934;2023-12-20T08:39:59;100115.00;;;5.32;100.00
18533;BME280;9396;51.510;11.934;2023-12-20T08:42:26;100111.69;;;5.39;100.00
18533;BME280;9396;51.510;11.934;2023-12-20T08:44:56;100102.00;;;5.40;100.00
18533;BME280;9396;51.510;11.934;2023-12-20T08:47:23;100111.13;;;5.36;100.00
18533;BME280;9396;51.510;11.934;2023-12-20T08:49:50;100115.44;;;5.37;100.00
18533;BME280;9396;51.510;11.934;2023-12-20T08:52:17;100119.56;;;5.30;100.00
18533;BME280;9396;51.510;11.934;2023-12-20T08:54:44;100111.84;;;5.38;100.00
18533;BME280;9396;51.510;11.934;2023-12-20T08:57:12;100107.59;;;5.46;100.00
18533;BME280;9396;51.510;11.934;2023-12-20T08:59:39;100122.84;;;5.64;100.00
18533;BME280;9396;51.510;11.934;2023-12-20T09:02:05;100119.03;;;5.77;100.00
18533;BME280;9396;51.510;11.934;2023-12-20T09:04:32;100122.84;;;5.84;100.00
18533;BME280;9396;51.510;11.934;2023-12-20T09:06:59;100123.22;;;6.00;100.00
18533;BME280;9396;51.510;11.934;2023-12-20T09:09:26;100118.56;;;6.13;100.00
18533;BME280;9396;51.510;11.934;2023-12-20T09:11:53;100118.56;;;6.13;100.00
18533;BME280;9396;51.510;11.934;2023-12-20T09:14:21;100122.84;;;6.14;100.00
18533;BME280;9396;51.510;11.934;2023-12-20T09:16:47;100117.75;;;6.22;100.00
18533;BME280;9396;51.510;11.934;2023-12-20T09:19:16;100116.63;;;6.65;100.00
18533;BME280;9396;51.510;11.934;2023-12-20T09:21:43;100106.16;;;6.53;100.00
18533;BME280;9396;51.510;11.934;2023-12-20T09:24:09;100107.22;;;6.81;100.00
18533;BME280;9396;51.510;11.934;2023-12-20T09:26:36;100091.34;;;6.81;100.00
18533;BME280;9396;51.510;11.934;2023-12-20T09:29:05;100090.38;;;6.82;100.00
18533;BME280;9396;51.510;11.934;2023-12-20T09:31:36;100094.81;;;6.91;100.00
18533;BME280;9396;51.510;11.934;2023-12-20T09:34:02;100081.19;;;7.05;100.00
18533;BME280;9396;51.510;11.934;2023-12-20T09:36:29;100082.03;;;7.06;100.00
18533;BME280;9396;51.510;11.934;2023-12-20T09:38:59;100086.78;;;7.12;100.00
18533;BME280;9396;51.510;11.934;2023-12-20T09:41:27;100088.97;;;7.07;100.00
18533;BME280;9396;51.510;11.934;2023-12-20T09:43:55;100085.91;;;7.02;100.00
18533;BME280;9396;51.510;11.934;2023-12-20T09:46:26;100093.59;;;7.24;100.00
18533;BME280;9396;51.510;11.934;2023-12-20T09:48:56;100100.38;;;6.98;100.00
18533;BME280;9396;51.510;11.934;2023-12-20T09:51:25;100085.50;;;7.16;100.00
18533;BME280;9396;51.510;11.934;2023-12-20T09:53:54;100078.53;;;7.34;100.00
18533;BME280;9396;51.510;11.934;2023-12-20T09:56:21;100061.41;;;7.28;100.00
18533;BME280;9396;51.510;11.934;2023-12-20T09:58:48;100058.91;;;7.17;100.00
18533;BME280;9396;51.510;11.934;2023-12-20T10:01:16;100062.81;;;7.23;100.00
18533;BME280;9396;51.510;11.934;2023-12-20T10:03:42;100049.81;;;7.39;100.00
18533;BME280;9396;51.510;11.934;2023-12-20T10:06:11;100051.47;;;7.49;100.00
18533;BME280;9396;51.510;11.934;2023-12-20T10:08:38;100051.63;;;7.48;100.00
18533;BME280;9396;51.510;11.934;2023-12-20T10:11:05;100038.25;;;7.49;100.00
18533;BME280;9396;51.510;11.934;2023-12-20T10:13:31;100036.59;;;7.48;100.00
18533;BME280;9396;51.510;11.934;2023-12-20T10:15:59;100031.16;;;7.40;100.00
18533;BME280;9396;51.510;11.934;2023-12-20T10:18:29;100022.25;;;7.41;100.00
18533;BME280;9396;51.510;11.934;2023-12-20T10:20:55;100024.38;;;7.38;100.00
18533;BME280;9396;51.510;11.934;2023-12-20T10:23:23;100021.31;;;7.14;100.00
18533;BME280;9396;51.510;11.934;2023-12-20T10:25:56;100016.88;;;7.14;100.00
18533;BME280;9396;51.510;11.934;2023-12-20T10:28:23;100016.19;;;7.22;100.00
18533;BME280;9396;51.510;11.934;2023-12-20T10:30:53;100011.06;;;7.01;100.00
18533;BME280;9396;51.510;11.934;2023-12-20T10:33:24;100010.94;;;6.93;100.00
18533;BME280;9396;51.510;11.934;2023-12-20T10:35:52;100011.63;;;6.86;100.00
18533;BME280;9396;51.510;11.934;2023-12-20T10:38:18;100013.56;;;6.84;100.00
18533;BME280;9396;51.510;11.934;2023-12-20T10:40:47;100003.00;;;6.65;100.00
18533;BME280;9396;51.510;11.934;2023-12-20T10:43:14;100001.34;;;6.64;100.00
18533;BME280;9396;51.510;11.934;2023-12-20T10:45:41;99999.94;;;6.60;100.00
18533;BME280;9396;51.510;11.934;2023-12-20T10:48:10;99992.31;;;6.57;100.00
18533;BME280;9396;51.510;11.934;2023-12-20T10:50:37;100001.63;;;6.51;100.00
18533;BME280;9396;51.510;11.934;2023-12-20T10:53:06;99999.41;;;6.66;100.00
18533;BME280;9396;51.510;11.934;2023-12-20T10:55:33;99995.09;;;6.74;100.00
18533;BME280;9396;51.510;11.934;2023-12-20T10:58:04;99977.41;;;6.75;100.00
18533;BME280;9396;51.510;11.934;2023-12-20T11:00:35;99996.44;;;6.78;100.00
18533;BME280;9396;51.510;11.934;2023-12-20T11:03:05;99991.03;;;6.99;100.00
18533;BME280;9396;51.510;11.934;2023-12-20T11:05:39;99987.69;;;6.97;100.00
18533;BME280;9396;51.510;11.934;2023-12-20T11:08:12;99981.28;;;6.99;100.00
18533;BME280;9396;51.510;11.934;2023-12-20T11:10:46;99973.47;;;6.98;100.00
18533;BME280;9396;51.510;11.934;2023-12-20T11:13:20;99977.81;;;6.99;100.00
18533;BME280;9396;51.510;11.934;2023-12-20T11:15:48;99958.91;;;6.94;100.00
18533;BME280;9396;51.510;11.934;2023-12-20T11:18:15;99968.91;;;6.81;100.00
18533;BME280;9396;51.510;11.934;2023-12-20T11:20:42;99960.72;;;6.74;100.00
18533;BME280;9396;51.510;11.934;2023-12-20T11:23:09;99943.88;;;6.75;100.00
18533;BME280;9396;51.510;11.934;2023-12-20T11:25:49;99935.13;;;6.65;100.00
18533;BME280;9396;51.510;11.934;2023-12-20T11:28:23;99929.31;;;6.62;100.00
18533;BME280;9396;51.510;11.934;2023-12-20T11:30:51;99919.69;;;6.61;100.00
18533;BME280;9396;51.510;11.934;2023-12-20T11:33:21;99925.53;;;6.64;100.00
18533;BME280;9396;51.510;11.934;2023-12-20T11:35:49;99915.09;;;6.63;100.00
18533;BME280;9396;51.510;11.934;2023-12-20T11:38:16;99891.88;;;6.66;100.00
18533;BME280;9396;51.510;11.934;2023-12-20T11:40:43;99894.81;;;6.63;100.00
18533;BME280;9396;51.510;11.934;2023-12-20T11:43:10;99900.94;;;6.64;100.00
18533;BME280;9396;51.510;11.934;2023-12-20T11:45:48;99881.03;;;6.60;100.00
18533;BME280;9396;51.510;11.934;2023-12-20T11:48:15;99880.19;;;6.59;100.00
18533;BME280;9396;51.510;11.934;2023-12-20T11:50:42;99867.28;;;6.56;100.00
18533;BME280;9396;51.510;11.934;2023-12-20T11:53:10;99879.38;;;6.59;100.00
18533;BME280;9396;51.510;11.934;2023-12-20T11:55:37;99868.53;;;6.62;100.00
18533;BME280;9396;51.510;11.934;2023-12-20T11:58:03;99871.88;;;6.54;100.00
18533;BME280;9396;51.510;11.934;2023-12-20T12:00:30;99885.91;;;6.55;100.00
18533;BME280;9396;51.510;11.934;2023-12-20T12:02:59;99884.38;;;6.62;100.00
18533;BME280;9396;51.510;11.934;2023-12-20T12:05:27;99878.50;;;6.68;100.00
18533;BME280;9396;51.510;11.934;2023-12-20T12:07:54;99884.94;;;6.65;100.00
18533;BME280;9396;51.510;11.934;2023-12-20T12:10:20;99852.38;;;6.65;99.56
18533;BME280;9396;51.510;11.934;2023-12-20T12:12:48;99858.81;;;6.62;99.92
18533;BME280;9396;51.510;11.934;2023-12-20T12:15:14;99853.78;;;6.69;99.77
18533;BME280;9396;51.510;11.934;2023-12-20T12:17:41;99864.91;;;6.63;99.78
18533;BME280;9396;51.510;11.934;2023-12-20T12:20:10;99868.13;;;6.57;100.00
18533;BME280;9396;51.510;11.934;2023-12-20T12:22:37;99864.25;;;6.51;100.00
18533;BME280;9396;51.510;11.934;2023-12-20T12:25:11;99859.50;;;6.55;100.00
18533;BME280;9396;51.510;11.934;2023-12-20T12:27:40;99852.38;;;6.55;100.00
18533;BME280;9396;51.510;11.934;2023-12-20T12:30:07;99855.59;;;6.59;100.00
18533;BME280;9396;51.510;11.934;2023-12-20T12:32:34;99861.69;;;6.69;100.00
18533;BME280;9396;51.510;11.934;2023-12-20T12:35:03;99855.16;;;6.73;100.00
18533;BME280;9396;51.510;11.934;2023-12-20T12:37:33;99852.50;;;6.73;100.00
18533;BME280;9396;51.510;11.934;2023-12-20T12:40:00;99858.19;;;6.78;99.34
18533;BME280;9396;51.510;11.934;2023-12-20T12:42:27;99858.75;;;6.72;100.00
18533;BME280;9396;51.510;11.934;2023-12-20T12:44:54;99848.34;;;6.70;99.98
18533;BME280;9396;51.510;11.934;2023-12-20T12:47:20;99832.19;;;6.73;100.00
18533;BME280;9396;51.510;11.934;2023-12-20T12:49:48;99816.06;;;6.67;100.00
18533;BME280;9396;51.510;11.934;2023-12-20T12:52:16;99810.09;;;6.65;100.00